createdAt,value
2023-01-13T00:00:54.475Z,40.92
2023-01-13T00:03:57.451Z,38.47
2023-01-13T00:07:00.110Z,47.00
2023-01-13T00:10:04.988Z,60.47
2023-01-13T00:13:08.066Z,22.83
2023-01-13T00:16:12.911Z,39.50
2023-01-13T00:19:15.613Z,34.07
2023-01-13T00:22:18.359Z,33.08
2023-01-13T00:25:22.625Z,40.92
2023-01-13T00:28:25.897Z,37.17
2023-01-13T00:31:29.700Z,53.15
2023-01-13T00:34:32.493Z,37.70
2023-01-13T00:37:37.546Z,58.42
2023-01-13T00:40:41.528Z,35.25
2023-01-13T00:43:44.199Z,42.38
2023-01-13T00:46:46.962Z,41.03
2023-01-13T00:49:53.267Z,38.93
2023-01-13T00:53:00.153Z,39.50
2023-01-13T00:56:06.089Z,49.10
2023-01-13T00:59:11.473Z,34.90
2023-01-13T01:02:14.266Z,44.05
2023-01-13T01:05:17.267Z,40.83
2023-01-13T01:08:20.128Z,41.25
2023-01-13T01:11:26.119Z,49.53
2023-01-13T01:14:28.843Z,41.70
2023-01-13T01:17:32.553Z,23.67
2023-01-13T01:20:37.161Z,24.40
2023-01-13T01:23:40.746Z,29.27
2023-01-13T01:26:44.987Z,23.50
2023-01-13T01:29:47.689Z,34.00
2023-01-13T01:32:50.440Z,20.65
2023-01-13T01:35:53.634Z,27.30
2023-01-13T01:38:57.830Z,28.92
2023-01-13T01:42:20.775Z,35.95
2023-01-13T01:45:24.971Z,41.05
2023-01-13T01:48:29.657Z,39.38
2023-01-13T01:51:36.853Z,45.93
2023-01-13T01:54:44.044Z,30.98
2023-01-13T01:57:53.669Z,32.30
2023-01-13T02:00:56.409Z,33.05
2023-01-13T02:04:05.203Z,43.75
2023-01-13T02:07:08.323Z,48.23
2023-01-13T02:10:13.611Z,48.90
2023-01-13T02:13:17.635Z,43.95
2023-01-13T02:16:24.639Z,34.25
2023-01-13T02:20:08.463Z,48.10
2023-01-13T02:24:13.463Z,43.90
2023-01-13T02:28:02.793Z,42.15
2023-01-13T02:31:29.006Z,43.08
2023-01-13T02:34:38.946Z,40.00
2023-01-13T02:37:43.939Z,53.30
2023-01-13T02:40:56.784Z,51.97
2023-01-13T02:44:06.711Z,32.53
2023-01-13T02:47:16.211Z,45.88
2023-01-13T02:50:23.073Z,54.22
2023-01-13T02:53:31.680Z,67.38
2023-01-13T02:56:39.629Z,34.70
2023-01-13T02:59:42.995Z,28.23
2023-01-13T03:02:47.695Z,46.13
2023-01-13T03:05:53.813Z,48.15
2023-01-13T03:09:06.726Z,29.90
2023-01-13T03:12:19.400Z,48.37
2023-01-13T03:15:29.474Z,23.17
2023-01-13T03:18:43.935Z,28.10
2023-01-13T03:21:53.782Z,41.13
2023-01-13T03:25:01.962Z,32.60
2023-01-13T03:28:08.887Z,30.07
2023-01-13T03:31:19.305Z,38.78
2023-01-13T03:34:30.268Z,38.60
2023-01-13T03:37:37.769Z,37.63
2023-01-13T03:40:44.786Z,27.20
2023-01-13T03:44:15.258Z,43.80
2023-01-13T03:47:22.427Z,30.75
2023-01-13T03:50:30.979Z,32.22
2023-01-13T03:53:39.679Z,30.50
2023-01-13T03:56:47.505Z,28.40
2023-01-13T03:59:56.168Z,27.10
2023-01-13T04:03:04.839Z,36.38
2023-01-13T04:06:17.089Z,36.10
2023-01-13T04:09:29.843Z,34.95
2023-01-13T04:12:54.295Z,32.53
2023-01-13T04:15:57.127Z,37.57
2023-01-13T04:18:59.957Z,20.00
2023-01-13T04:22:04.101Z,24.40
2023-01-13T04:25:08.006Z,27.10
2023-01-13T04:28:11.781Z,24.00
2023-01-13T04:31:15.196Z,21.27
2023-01-13T04:34:17.883Z,41.60
2023-01-13T04:37:21.876Z,36.40
2023-01-13T04:40:24.754Z,30.65
2023-01-13T04:43:27.300Z,36.22
2023-01-13T04:46:29.971Z,46.03
2023-01-13T04:49:33.252Z,30.08
2023-01-13T04:52:37.314Z,26.85
2023-01-13T04:55:39.995Z,49.45
2023-01-13T04:58:42.678Z,35.83
2023-01-13T05:01:45.403Z,46.97
2023-01-13T05:04:48.432Z,55.80
2023-01-13T05:07:52.510Z,39.90
2023-01-13T05:10:55.506Z,50.22
2023-01-13T05:14:16.409Z,45.03
2023-01-13T05:17:21.077Z,50.67
2023-01-13T05:20:24.843Z,41.35
2023-01-13T05:23:47.703Z,39.47
2023-01-13T05:26:50.381Z,41.45
2023-01-13T05:29:53.785Z,30.17
2023-01-13T05:32:56.914Z,33.30
2023-01-13T05:36:02.780Z,22.67
2023-01-13T05:39:06.783Z,22.27
2023-01-13T05:42:28.195Z,28.67
2023-01-13T05:45:31.612Z,27.08
2023-01-13T05:48:36.159Z,31.83
2023-01-13T05:51:38.761Z,35.80
2023-01-13T05:54:42.805Z,32.45
2023-01-13T05:57:45.482Z,35.80
2023-01-13T06:00:48.787Z,42.45
2023-01-13T06:03:51.476Z,36.90
2023-01-13T06:06:54.162Z,52.75
2023-01-13T06:09:58.226Z,36.33
2023-01-13T06:13:01.136Z,48.63
2023-01-13T06:16:04.179Z,40.50
2023-01-13T06:19:09.037Z,42.90
2023-01-13T06:22:15.779Z,34.20
2023-01-13T06:25:26.204Z,37.92
2023-01-13T06:28:28.917Z,45.13
2023-01-13T06:31:33.809Z,49.42
2023-01-13T06:34:38.103Z,39.13
2023-01-13T06:37:43.471Z,55.65
2023-01-13T06:41:14.091Z,48.78
2023-01-13T06:44:17.735Z,40.10
2023-01-13T06:47:22.415Z,39.80
2023-01-13T06:50:25.541Z,42.97
2023-01-13T06:53:28.239Z,44.60
2023-01-13T06:56:32.348Z,35.15
2023-01-13T06:59:35.338Z,33.13
2023-01-13T07:02:40.351Z,37.90
2023-01-13T07:05:56.245Z,36.53
2023-01-13T07:08:59.303Z,32.20
2023-01-13T07:12:03.914Z,33.22
2023-01-13T07:15:20.133Z,35.10
2023-01-13T07:18:27.637Z,32.30
2023-01-13T07:21:31.076Z,33.77
2023-01-13T07:24:34.199Z,31.17
2023-01-13T07:27:38.708Z,30.45
2023-01-13T07:30:48.452Z,30.27
2023-01-13T07:33:51.442Z,33.03
2023-01-13T07:37:05.664Z,34.00
2023-01-13T07:40:16.556Z,29.55
2023-01-13T07:43:34.912Z,22.23
2023-01-13T07:46:38.342Z,33.90
2023-01-13T07:49:41.145Z,23.92
2023-01-13T07:52:43.909Z,31.10
2023-01-13T07:55:46.737Z,28.45
2023-01-13T07:58:52.964Z,29.15
2023-01-13T08:01:56.124Z,25.30
2023-01-13T08:04:59.937Z,26.17
2023-01-13T08:08:02.598Z,24.50
2023-01-13T08:11:09.188Z,24.75
2023-01-13T08:14:15.909Z,23.50
2023-01-13T08:17:20.446Z,27.08
2023-01-13T08:20:23.671Z,22.95
2023-01-13T08:23:26.409Z,25.87
2023-01-13T08:26:29.126Z,24.27
2023-01-13T08:29:33.378Z,22.27
2023-01-13T08:32:36.176Z,22.00
2023-01-13T08:35:39.822Z,20.83
2023-01-13T08:38:42.728Z,17.50
2023-01-13T08:41:58.756Z,19.77
2023-01-13T08:45:03.171Z,65.25
2023-01-13T08:48:05.977Z,21.20
2023-01-13T08:51:09.500Z,20.75
2023-01-13T08:54:12.583Z,21.97
2023-01-13T08:57:17.107Z,23.02
2023-01-13T09:00:21.932Z,26.77
2023-01-13T09:03:24.815Z,22.95
2023-01-13T09:06:27.703Z,21.75
2023-01-13T09:09:30.687Z,21.87
2023-01-13T09:12:51.882Z,24.83
2023-01-13T09:15:56.951Z,27.17
2023-01-13T09:18:59.961Z,25.98
2023-01-13T09:22:03.809Z,27.90
2023-01-13T09:25:07.222Z,24.93
2023-01-13T09:28:10.189Z,30.27
2023-01-13T09:31:14.509Z,21.45
2023-01-13T09:34:37.823Z,20.77
2023-01-13T09:37:41.625Z,25.13
2023-01-13T09:40:49.022Z,20.33
2023-01-13T09:43:58.115Z,28.02
2023-01-13T09:47:07.109Z,21.88
2023-01-13T09:50:22.039Z,25.38
2023-01-13T09:53:28.858Z,27.35
2023-01-13T09:56:31.898Z,16.60
2023-01-13T09:59:36.522Z,22.80
2023-01-13T10:03:01.609Z,29.50
2023-01-13T10:06:13.516Z,22.38
2023-01-13T10:09:21.873Z,24.35
2023-01-13T10:13:04.827Z,25.77
2023-01-13T10:16:24.071Z,28.15
2023-01-13T10:19:33.117Z,21.88
2023-01-13T10:23:00.120Z,24.65
2023-01-13T10:26:17.922Z,25.58
2023-01-13T10:29:24.908Z,26.57
2023-01-13T10:32:27.949Z,20.50
2023-01-13T10:36:00.696Z,24.45
2023-01-13T10:39:08.721Z,21.10
2023-01-13T10:42:14.453Z,21.15
2023-01-13T10:45:25.425Z,26.97
2023-01-13T10:48:37.664Z,17.42
2023-01-13T10:51:44.980Z,20.63
2023-01-13T10:54:52.354Z,22.10
2023-01-13T10:57:55.336Z,21.88
2023-01-13T11:01:03.992Z,19.63
2023-01-13T11:04:27.036Z,22.27
2023-01-13T11:07:34.136Z,38.25
2023-01-13T11:10:45.427Z,19.83
2023-01-13T11:14:09.590Z,20.80
2023-01-13T11:17:28.006Z,22.47
2023-01-13T11:20:36.973Z,20.17
2023-01-13T11:23:46.627Z,16.88
2023-01-13T11:26:56.576Z,17.42
2023-01-13T11:30:09.955Z,18.30
2023-01-13T11:33:26.633Z,21.40
2023-01-13T11:36:37.779Z,17.98
2023-01-13T11:39:49.237Z,20.52
2023-01-13T11:42:59.955Z,17.48
2023-01-13T11:46:02.943Z,17.88
2023-01-13T11:49:05.999Z,17.83
2023-01-13T11:52:16.525Z,21.05
2023-01-13T11:55:34.266Z,27.70
2023-01-13T11:59:15.268Z,17.65
2023-01-13T12:02:30.749Z,20.92
2023-01-13T12:05:37.285Z,16.30
2023-01-13T12:08:58.463Z,15.23
2023-01-13T12:12:19.585Z,14.07
2023-01-13T12:16:04.771Z,16.92
2023-01-13T12:19:24.411Z,16.42
2023-01-13T12:22:33.766Z,24.13
2023-01-13T12:25:43.824Z,14.63
2023-01-13T12:28:53.033Z,16.65
2023-01-13T12:31:56.505Z,15.77
2023-01-13T12:35:09.066Z,15.18
2023-01-13T12:38:21.120Z,16.63
2023-01-13T12:42:00.269Z,20.60
2023-01-13T12:45:25.979Z,17.67
2023-01-13T12:49:05.244Z,18.20
2023-01-13T12:52:19.867Z,16.23
2023-01-13T12:55:23.713Z,14.60
2023-01-13T12:58:28.558Z,16.65
2023-01-13T13:01:37.669Z,16.15
2023-01-13T13:04:45.081Z,20.23
2023-01-13T13:07:52.059Z,13.95
2023-01-13T13:11:06.535Z,12.13
2023-01-13T13:14:12.392Z,18.42
2023-01-13T13:17:41.387Z,18.58
2023-01-13T13:21:04.235Z,14.30
2023-01-13T13:24:11.067Z,17.17
2023-01-13T13:27:17.452Z,14.00
2023-01-13T13:30:27.808Z,14.95
2023-01-13T13:33:50.382Z,21.38
2023-01-13T13:37:21.774Z,17.25
2023-01-13T13:40:43.558Z,21.35
2023-01-13T13:44:05.225Z,21.27
2023-01-13T13:47:08.485Z,19.58
2023-01-13T13:50:15.954Z,20.02
2023-01-13T13:53:19.840Z,20.23
2023-01-13T13:56:26.039Z,16.50
2023-01-13T13:59:34.506Z,18.43
2023-01-13T14:02:37.724Z,21.67
2023-01-13T14:05:53.804Z,21.63
2023-01-13T14:08:56.536Z,21.25
2023-01-13T14:12:01.662Z,27.10
2023-01-13T14:15:05.569Z,18.80
2023-01-13T14:18:14.086Z,15.45
2023-01-13T14:21:22.327Z,18.70
2023-01-13T14:24:25.466Z,32.60
2023-01-13T14:27:29.357Z,33.75
2023-01-13T14:30:34.010Z,24.00
2023-01-13T14:33:39.072Z,39.67
2023-01-13T14:36:43.375Z,30.83
2023-01-13T14:39:46.331Z,23.30
2023-01-13T14:42:57.178Z,22.45
2023-01-13T14:46:02.928Z,22.50
2023-01-13T14:49:06.099Z,26.85
2023-01-13T14:52:17.003Z,30.38
2023-01-13T14:55:30.207Z,27.63
2023-01-13T14:58:32.966Z,27.67
2023-01-13T15:01:36.937Z,26.23
2023-01-13T15:04:39.744Z,32.13
2023-01-13T15:07:49.169Z,38.03
2023-01-13T15:10:55.569Z,40.45
2023-01-13T15:14:01.507Z,32.80
2023-01-13T15:17:14.633Z,31.97
2023-01-13T15:20:19.322Z,32.67
2023-01-13T15:23:23.430Z,33.10
2023-01-13T15:26:27.627Z,42.45
2023-01-13T15:29:30.443Z,37.22
2023-01-13T15:32:33.096Z,33.77
2023-01-13T15:35:37.732Z,36.33
2023-01-13T15:38:41.712Z,39.97
2023-01-13T15:42:03.045Z,38.72
2023-01-13T15:45:24.823Z,41.78
2023-01-13T15:48:30.707Z,39.50
2023-01-13T15:51:33.604Z,35.35
2023-01-13T15:54:37.639Z,38.85
2023-01-13T15:57:47.963Z,28.65
2023-01-13T16:00:51.704Z,34.58
2023-01-13T16:03:55.912Z,34.07
2023-01-13T16:06:59.590Z,30.05
2023-01-13T16:10:05.059Z,29.02
2023-01-13T16:13:07.909Z,157.05
2023-01-13T16:16:19.276Z,42.92
2023-01-13T16:19:22.842Z,34.37
2023-01-13T16:22:25.994Z,38.72
2023-01-13T16:25:30.028Z,42.47
2023-01-13T16:28:35.414Z,35.92
2023-01-13T16:31:38.906Z,30.98
2023-01-13T16:34:42.038Z,35.70
2023-01-13T16:37:47.232Z,35.05
2023-01-13T16:40:52.836Z,33.95
2023-01-13T16:43:55.655Z,37.15
2023-01-13T16:46:58.231Z,30.65
2023-01-13T16:50:00.924Z,31.53
2023-01-13T16:53:04.977Z,34.45
2023-01-13T16:56:23.434Z,36.92
2023-01-13T16:59:26.236Z,35.65
2023-01-13T17:02:28.927Z,34.30
2023-01-13T17:05:31.641Z,37.37
2023-01-13T17:08:34.369Z,37.17
2023-01-13T17:11:38.425Z,38.35
2023-01-13T17:14:43.316Z,47.65
2023-01-13T17:17:48.895Z,36.60
2023-01-13T17:20:52.010Z,52.30
2023-01-13T17:23:54.966Z,45.58
2023-01-13T17:26:59.147Z,41.42
2023-01-13T17:30:01.898Z,42.63
2023-01-13T17:33:06.717Z,35.33
2023-01-13T17:36:09.935Z,32.63
2023-01-13T17:39:16.204Z,40.97
2023-01-13T17:42:20.513Z,43.75
2023-01-13T17:45:23.189Z,39.38
2023-01-13T17:48:26.035Z,43.97
2023-01-13T17:51:29.880Z,43.53
2023-01-13T17:54:32.754Z,49.45
2023-01-13T17:57:36.885Z,58.85
2023-01-13T18:00:39.584Z,49.45
2023-01-13T18:03:42.399Z,50.15
2023-01-13T18:06:45.607Z,38.93
2023-01-13T18:09:48.323Z,40.30
2023-01-13T18:12:52.358Z,41.75
2023-01-13T18:16:04.279Z,36.00
2023-01-13T18:19:25.704Z,44.95
2023-01-13T18:22:47.033Z,46.43
2023-01-13T18:26:08.222Z,44.15
2023-01-13T18:29:12.411Z,46.88
2023-01-13T18:32:16.135Z,50.15
2023-01-13T18:35:19.082Z,48.28
2023-01-13T18:38:26.320Z,47.20
2023-01-13T18:41:47.849Z,43.15
2023-01-13T18:44:53.221Z,43.40
2023-01-13T18:47:57.774Z,36.05
2023-01-13T18:51:01.013Z,37.03
2023-01-13T18:54:04.451Z,42.33
2023-01-13T18:57:07.377Z,43.63
2023-01-13T19:00:14.913Z,45.53
2023-01-13T19:03:29.552Z,40.95
2023-01-13T19:06:33.785Z,42.53
2023-01-13T19:09:36.570Z,40.53
2023-01-13T19:12:39.492Z,42.58
2023-01-13T19:15:43.848Z,41.83
2023-01-13T19:18:47.124Z,40.20
2023-01-13T19:21:50.237Z,42.53
2023-01-13T19:24:53.310Z,37.03
2023-01-13T19:27:56.194Z,47.00
2023-01-13T19:31:02.463Z,38.25
2023-01-13T19:34:05.859Z,44.10
2023-01-13T19:37:08.633Z,41.15
2023-01-13T19:40:15.779Z,46.13
2023-01-13T19:43:37.337Z,45.10
2023-01-13T19:46:41.587Z,41.83
2023-01-13T19:49:44.488Z,38.33
2023-01-13T19:52:47.791Z,40.15
2023-01-13T19:55:50.888Z,48.90
2023-01-13T19:58:54.133Z,44.53
2023-01-13T20:02:00.758Z,46.70
2023-01-13T20:05:05.868Z,48.90
2023-01-13T20:08:08.878Z,47.70
2023-01-13T20:11:21.498Z,45.23
2023-01-13T20:14:25.889Z,48.17
2023-01-13T20:17:30.873Z,44.90
2023-01-13T20:20:37.159Z,46.30
2023-01-13T20:23:40.036Z,45.53
2023-01-13T20:26:42.797Z,44.47
2023-01-13T20:29:47.837Z,43.83
2023-01-13T20:32:52.656Z,43.72
2023-01-13T20:35:58.354Z,44.90
2023-01-13T20:39:02.403Z,44.10
2023-01-13T20:42:24.132Z,41.20
2023-01-13T20:45:26.842Z,43.75
2023-01-13T20:48:30.810Z,45.33
2023-01-13T20:51:33.681Z,47.70
2023-01-13T20:54:37.125Z,46.50
2023-01-13T20:57:41.714Z,65.57
2023-01-13T21:00:44.890Z,63.45
2023-01-13T21:03:49.177Z,66.68
2023-01-13T21:06:52.371Z,53.85
2023-01-13T21:09:55.118Z,56.63
2023-01-13T21:13:16.190Z,53.30
2023-01-13T21:16:18.888Z,49.78
2023-01-13T21:19:22.984Z,46.85
2023-01-13T21:22:25.679Z,48.08
2023-01-13T21:25:28.858Z,47.72
2023-01-13T21:28:58.159Z,48.33
2023-01-13T21:32:01.027Z,46.08
2023-01-13T21:35:05.797Z,83.00
2023-01-13T21:38:10.517Z,96.10
2023-01-13T21:41:14.427Z,47.38
2023-01-13T21:44:38.890Z,46.50
2023-01-13T21:47:50.390Z,42.80
2023-01-13T21:50:54.694Z,42.92
2023-01-13T21:53:57.612Z,40.80
2023-01-13T21:57:00.350Z,40.40
2023-01-13T22:00:05.315Z,43.30
2023-01-13T22:03:09.695Z,46.70
2023-01-13T22:06:13.842Z,47.22
2023-01-13T22:09:16.888Z,49.70
2023-01-13T22:12:23.526Z,51.38
2023-01-13T22:15:28.325Z,51.30
2023-01-13T22:18:30.983Z,46.85
2023-01-13T22:21:35.684Z,45.60
2023-01-13T22:24:43.100Z,52.67
2023-01-13T22:27:48.184Z,44.75
2023-01-13T22:30:53.465Z,51.77
2023-01-13T22:33:56.124Z,54.90
2023-01-13T22:37:00.377Z,48.80
2023-01-13T22:40:03.979Z,48.40
2023-01-13T22:43:06.836Z,49.63
2023-01-13T22:46:11.657Z,46.17
2023-01-13T22:49:15.329Z,49.13
2023-01-13T22:52:20.285Z,47.00
2023-01-13T22:55:23.073Z,49.05
2023-01-13T22:58:26.317Z,44.28
2023-01-13T23:01:30.926Z,43.70
2023-01-13T23:04:33.776Z,45.35
2023-01-13T23:07:37.871Z,43.20
2023-01-13T23:10:41.812Z,50.75
2023-01-13T23:13:45.409Z,47.22
2023-01-13T23:16:48.110Z,53.27
2023-01-13T23:19:50.902Z,55.58
2023-01-13T23:22:55.075Z,55.42
2023-01-13T23:25:57.818Z,54.47
2023-01-13T23:29:02.023Z,53.75
2023-01-13T23:32:05.295Z,55.23
2023-01-13T23:35:09.041Z,60.78
2023-01-13T23:38:13.243Z,60.50
2023-01-13T23:41:18.943Z,53.20
2023-01-13T23:44:21.667Z,55.00
2023-01-13T23:47:24.351Z,58.80
2023-01-13T23:50:28.866Z,62.97
2023-01-13T23:53:35.408Z,58.13
2023-01-13T23:56:39.566Z,60.13
2023-01-13T23:59:42.432Z,59.00
